sensor_id;sensor_type;location;lat;lon;timestamp;P1;durP1;ratioP1;P2;durP2;ratioP2
12163;SDS011;6145;50.192;10.064;2022-09-09T00:02:18;2.53;;;1.37;;
12163;SDS011;6145;50.192;10.064;2022-09-09T00:04:48;1.60;;;1.50;;
12163;SDS011;6145;50.192;10.064;2022-09-09T00:07:25;1.47;;;1.37;;
12163;SDS011;6145;50.192;10.064;2022-09-09T00:10:09;2.40;;;1.43;;
12163;SDS011;6145;50.192;10.064;2022-09-09T00:12:45;3.33;;;1.67;;
12163;SDS011;6145;50.192;10.064;2022-09-09T00:15:20;2.20;;;1.40;;
12163;SDS011;6145;50.192;10.064;2022-09-09T00:17:51;1.00;;;1.00;;
12163;SDS011;6145;50.192;10.064;2022-09-09T00:20:24;2.20;;;1.30;;
12163;SDS011;6145;50.192;10.064;2022-09-09T00:22:59;2.63;;;1.67;;
12163;SDS011;6145;50.192;10.064;2022-09-09T00:25:34;1.83;;;1.50;;
12163;SDS011;6145;50.192;10.064;2022-09-09T00:28:08;1.33;;;1.20;;
12163;SDS011;6145;50.192;10.064;2022-09-09T00:30:42;1.60;;;1.20;;
12163;SDS011;6145;50.192;10.064;2022-09-09T00:33:10;1.43;;;1.30;;
12163;SDS011;6145;50.192;10.064;2022-09-09T00:35:42;1.40;;;1.30;;
12163;SDS011;6145;50.192;10.064;2022-09-09T00:38:13;1.73;;;1.30;;
12163;SDS011;6145;50.192;10.064;2022-09-09T00:40:45;1.37;;;1.27;;
12163;SDS011;6145;50.192;10.064;2022-09-09T00:43:22;2.30;;;1.30;;
12163;SDS011;6145;50.192;10.064;2022-09-09T00:45:55;1.70;;;1.40;;
12163;SDS011;6145;50.192;10.064;2022-09-09T00:48:33;2.30;;;1.57;;
12163;SDS011;6145;50.192;10.064;2022-09-09T00:51:07;1.80;;;1.67;;
12163;SDS011;6145;50.192;10.064;2022-09-09T00:56:32;1.60;;;1.30;;
12163;SDS011;6145;50.192;10.064;2022-09-09T00:59:08;1.43;;;1.10;;
12163;SDS011;6145;50.192;10.064;2022-09-09T01:01:49;2.03;;;1.60;;
12163;SDS011;6145;50.192;10.064;2022-09-09T01:04:18;1.53;;;1.33;;
12163;SDS011;6145;50.192;10.064;2022-09-09T01:06:50;2.90;;;1.33;;
12163;SDS011;6145;50.192;10.064;2022-09-09T01:09:24;1.90;;;1.53;;
12163;SDS011;6145;50.192;10.064;2022-09-09T01:12:01;1.37;;;1.27;;
12163;SDS011;6145;50.192;10.064;2022-09-09T01:14:38;1.50;;;1.40;;
12163;SDS011;6145;50.192;10.064;2022-09-09T01:17:11;2.43;;;1.40;;
12163;SDS011;6145;50.192;10.064;2022-09-09T01:19:45;2.17;;;1.40;;
12163;SDS011;6145;50.192;10.064;2022-09-09T01:22:22;2.10;;;1.40;;
12163;SDS011;6145;50.192;10.064;2022-09-09T01:28:19;1.70;;;1.43;;
12163;SDS011;6145;50.192;10.064;2022-09-09T01:30:51;3.17;;;1.30;;
12163;SDS011;6145;50.192;10.064;2022-09-09T01:33:18;1.17;;;1.10;;
12163;SDS011;6145;50.192;10.064;2022-09-09T01:35:45;1.43;;;1.33;;
12163;SDS011;6145;50.192;10.064;2022-09-09T01:38:16;1.63;;;1.40;;
12163;SDS011;6145;50.192;10.064;2022-09-09T01:40:44;1.30;;;1.20;;
12163;SDS011;6145;50.192;10.064;2022-09-09T01:43:11;1.50;;;1.40;;
12163;SDS011;6145;50.192;10.064;2022-09-09T01:45:39;1.60;;;1.43;;
12163;SDS011;6145;50.192;10.064;2022-09-09T01:48:08;1.50;;;1.40;;
12163;SDS011;6145;50.192;10.064;2022-09-09T01:50:35;3.17;;;1.50;;
12163;SDS011;6145;50.192;10.064;2022-09-09T01:53:02;2.53;;;1.33;;
12163;SDS011;6145;50.192;10.064;2022-09-09T01:55:30;1.60;;;1.50;;
12163;SDS011;6145;50.192;10.064;2022-09-09T01:58:04;1.50;;;1.20;;
12163;SDS011;6145;50.192;10.064;2022-09-09T02:00:44;3.37;;;1.60;;
12163;SDS011;6145;50.192;10.064;2022-09-09T02:03:21;1.97;;;1.53;;
12163;SDS011;6145;50.192;10.064;2022-09-09T02:05:52;1.93;;;1.60;;
12163;SDS011;6145;50.192;10.064;2022-09-09T02:08:30;2.13;;;1.57;;
12163;SDS011;6145;50.192;10.064;2022-09-09T02:11:04;2.17;;;1.43;;
12163;SDS011;6145;50.192;10.064;2022-09-09T02:13:35;3.60;;;1.40;;
12163;SDS011;6145;50.192;10.064;2022-09-09T02:16:07;2.80;;;1.77;;
12163;SDS011;6145;50.192;10.064;2022-09-09T02:18:38;1.60;;;1.50;;
12163;SDS011;6145;50.192;10.064;2022-09-09T02:21:09;1.90;;;1.63;;
12163;SDS011;6145;50.192;10.064;2022-09-09T02:23:38;1.53;;;1.20;;
12163;SDS011;6145;50.192;10.064;2022-09-09T02:26:07;2.83;;;1.50;;
12163;SDS011;6145;50.192;10.064;2022-09-09T02:28:36;1.20;;;1.10;;
12163;SDS011;6145;50.192;10.064;2022-09-09T02:31:06;2.07;;;1.60;;
12163;SDS011;6145;50.192;10.064;2022-09-09T02:33:35;1.97;;;1.27;;
12163;SDS011;6145;50.192;10.064;2022-09-09T02:36:06;1.90;;;1.30;;
12163;SDS011;6145;50.192;10.064;2022-09-09T02:38:37;2.30;;;1.60;;
12163;SDS011;6145;50.192;10.064;2022-09-09T02:41:08;1.87;;;1.50;;
12163;SDS011;6145;50.192;10.064;2022-09-09T02:43:35;2.20;;;1.53;;
12163;SDS011;6145;50.192;10.064;2022-09-09T02:46:03;2.30;;;1.90;;
12163;SDS011;6145;50.192;10.064;2022-09-09T02:48:44;2.70;;;1.60;;
12163;SDS011;6145;50.192;10.064;2022-09-09T02:51:21;1.57;;;1.30;;
12163;SDS011;6145;50.192;10.064;2022-09-09T02:53:57;2.37;;;1.60;;
12163;SDS011;6145;50.192;10.064;2022-09-09T02:56:32;2.43;;;1.70;;
12163;SDS011;6145;50.192;10.064;2022-09-09T02:59:04;2.37;;;1.70;;
12163;SDS011;6145;50.192;10.064;2022-09-09T03:01:33;2.37;;;1.60;;
12163;SDS011;6145;50.192;10.064;2022-09-09T03:04:00;2.30;;;1.73;;
12163;SDS011;6145;50.192;10.064;2022-09-09T03:06:28;3.17;;;1.70;;
12163;SDS011;6145;50.192;10.064;2022-09-09T03:08:55;1.60;;;1.50;;
12163;SDS011;6145;50.192;10.064;2022-09-09T03:11:25;2.23;;;1.40;;
12163;SDS011;6145;50.192;10.064;2022-09-09T03:13:52;1.70;;;1.60;;
12163;SDS011;6145;50.192;10.064;2022-09-09T03:16:20;1.57;;;1.47;;
12163;SDS011;6145;50.192;10.064;2022-09-09T03:18:49;1.73;;;1.53;;
12163;SDS011;6145;50.192;10.064;2022-09-09T03:21:15;1.50;;;1.40;;
12163;SDS011;6145;50.192;10.064;2022-09-09T03:23:42;1.60;;;1.50;;
12163;SDS011;6145;50.192;10.064;2022-09-09T03:26:10;4.10;;;1.50;;
12163;SDS011;6145;50.192;10.064;2022-09-09T03:28:37;2.70;;;1.63;;
12163;SDS011;6145;50.192;10.064;2022-09-09T03:31:04;2.07;;;1.80;;
12163;SDS011;6145;50.192;10.064;2022-09-09T03:33:35;3.27;;;1.77;;
12163;SDS011;6145;50.192;10.064;2022-09-09T03:36:04;2.20;;;1.80;;
12163;SDS011;6145;50.192;10.064;2022-09-09T03:38:32;2.13;;;1.63;;
12163;SDS011;6145;50.192;10.064;2022-09-09T03:40:59;4.47;;;2.30;;
12163;SDS011;6145;50.192;10.064;2022-09-09T03:43:27;1.90;;;1.73;;
12163;SDS011;6145;50.192;10.064;2022-09-09T03:45:54;2.00;;;1.80;;
12163;SDS011;6145;50.192;10.064;2022-09-09T03:48:21;2.40;;;2.03;;
12163;SDS011;6145;50.192;10.064;2022-09-09T03:50:49;2.37;;;1.70;;
12163;SDS011;6145;50.192;10.064;2022-09-09T03:53:19;1.63;;;1.50;;
12163;SDS011;6145;50.192;10.064;2022-09-09T03:55:47;1.70;;;1.57;;
12163;SDS011;6145;50.192;10.064;2022-09-09T03:58:19;1.30;;;1.27;;
12163;SDS011;6145;50.192;10.064;2022-09-09T04:00:52;1.60;;;1.50;;
12163;SDS011;6145;50.192;10.064;2022-09-09T04:03:21;2.73;;;1.90;;
12163;SDS011;6145;50.192;10.064;2022-09-09T04:05:49;3.43;;;2.00;;
12163;SDS011;6145;50.192;10.064;2022-09-09T04:08:16;10.17;;;5.37;;
12163;SDS011;6145;50.192;10.064;2022-09-09T04:10:45;14.90;;;9.07;;
12163;SDS011;6145;50.192;10.064;2022-09-09T04:13:12;11.90;;;5.57;;
12163;SDS011;6145;50.192;10.064;2022-09-09T04:15:40;7.10;;;4.73;;
12163;SDS011;6145;50.192;10.064;2022-09-09T04:18:07;6.27;;;4.27;;
12163;SDS011;6145;50.192;10.064;2022-09-09T04:20:34;8.67;;;4.37;;
12163;SDS011;6145;50.192;10.064;2022-09-09T04:23:01;6.87;;;3.47;;
12163;SDS011;6145;50.192;10.064;2022-09-09T04:25:28;3.50;;;3.10;;
12163;SDS011;6145;50.192;10.064;2022-09-09T04:27:56;7.17;;;3.73;;
12163;SDS011;6145;50.192;10.064;2022-09-09T04:30:24;4.07;;;3.13;;
12163;SDS011;6145;50.192;10.064;2022-09-09T04:32:52;4.90;;;2.80;;
12163;SDS011;6145;50.192;10.064;2022-09-09T04:35:19;3.37;;;2.83;;
12163;SDS011;6145;50.192;10.064;2022-09-09T04:37:45;3.30;;;2.30;;
12163;SDS011;6145;50.192;10.064;2022-09-09T04:40:12;4.60;;;2.20;;
12163;SDS011;6145;50.192;10.064;2022-09-09T04:42:40;2.67;;;2.00;;
12163;SDS011;6145;50.192;10.064;2022-09-09T04:45:10;3.03;;;2.20;;
12163;SDS011;6145;50.192;10.064;2022-09-09T04:47:38;2.40;;;2.00;;
12163;SDS011;6145;50.192;10.064;2022-09-09T04:50:06;2.73;;;2.27;;
12163;SDS011;6145;50.192;10.064;2022-09-09T04:52:33;2.10;;;1.90;;
12163;SDS011;6145;50.192;10.064;2022-09-09T04:55:01;2.00;;;1.53;;
12163;SDS011;6145;50.192;10.064;2022-09-09T04:57:27;4.20;;;2.10;;
12163;SDS011;6145;50.192;10.064;2022-09-09T04:59:56;1.67;;;1.57;;
12163;SDS011;6145;50.192;10.064;2022-09-09T05:02:25;3.13;;;1.53;;
12163;SDS011;6145;50.192;10.064;2022-09-09T05:04:51;3.67;;;2.00;;
12163;SDS011;6145;50.192;10.064;2022-09-09T05:07:18;1.73;;;1.63;;
12163;SDS011;6145;50.192;10.064;2022-09-09T05:09:45;2.00;;;1.80;;
12163;SDS011;6145;50.192;10.064;2022-09-09T05:12:14;3.20;;;1.90;;
12163;SDS011;6145;50.192;10.064;2022-09-09T05:14:42;2.07;;;1.80;;
12163;SDS011;6145;50.192;10.064;2022-09-09T05:17:09;2.27;;;1.70;;
12163;SDS011;6145;50.192;10.064;2022-09-09T05:19:37;2.17;;;1.97;;
12163;SDS011;6145;50.192;10.064;2022-09-09T05:22:04;2.70;;;1.97;;
12163;SDS011;6145;50.192;10.064;2022-09-09T05:24:30;2.27;;;1.80;;
12163;SDS011;6145;50.192;10.064;2022-09-09T05:26:58;1.60;;;1.50;;
12163;SDS011;6145;50.192;10.064;2022-09-09T05:29:27;1.90;;;1.80;;
12163;SDS011;6145;50.192;10.064;2022-09-09T05:31:54;2.10;;;1.90;;
12163;SDS011;6145;50.192;10.064;2022-09-09T05:34:20;2.13;;;1.80;;
12163;SDS011;6145;50.192;10.064;2022-09-09T05:36:48;1.90;;;1.43;;
12163;SDS011;6145;50.192;10.064;2022-09-09T05:39:16;2.20;;;1.83;;
12163;SDS011;6145;50.192;10.064;2022-09-09T05:41:42;2.53;;;2.10;;
12163;SDS011;6145;50.192;10.064;2022-09-09T05:44:09;2.83;;;2.10;;
12163;SDS011;6145;50.192;10.064;2022-09-09T05:46:36;3.00;;;2.00;;
12163;SDS011;6145;50.192;10.064;2022-09-09T05:49:03;2.50;;;2.30;;
12163;SDS011;6145;50.192;10.064;2022-09-09T05:51:31;2.03;;;1.93;;
12163;SDS011;6145;50.192;10.064;2022-09-09T05:53:59;3.67;;;1.97;;
12163;SDS011;6145;50.192;10.064;2022-09-09T05:56:26;2.30;;;2.10;;
12163;SDS011;6145;50.192;10.064;2022-09-09T05:58:54;3.97;;;2.40;;
12163;SDS011;6145;50.192;10.064;2022-09-09T06:01:23;2.43;;;2.20;;
12163;SDS011;6145;50.192;10.064;2022-09-09T06:03:51;2.53;;;1.63;;
12163;SDS011;6145;50.192;10.064;2022-09-09T06:06:19;1.80;;;1.70;;
12163;SDS011;6145;50.192;10.064;2022-09-09T06:08:47;2.40;;;2.20;;
12163;SDS011;6145;50.192;10.064;2022-09-09T06:11:17;2.20;;;1.87;;
12163;SDS011;6145;50.192;10.064;2022-09-09T06:17:08;2.60;;;1.83;;
12163;SDS011;6145;50.192;10.064;2022-09-09T06:19:35;2.53;;;2.10;;
12163;SDS011;6145;50.192;10.064;2022-09-09T06:22:02;1.90;;;1.80;;
12163;SDS011;6145;50.192;10.064;2022-09-09T06:24:30;2.00;;;1.80;;
12163;SDS011;6145;50.192;10.064;2022-09-09T06:26:59;3.27;;;2.43;;
12163;SDS011;6145;50.192;10.064;2022-09-09T06:29:25;2.93;;;1.63;;
12163;SDS011;6145;50.192;10.064;2022-09-09T06:31:52;2.90;;;2.00;;
12163;SDS011;6145;50.192;10.064;2022-09-09T06:34:19;1.97;;;1.80;;
12163;SDS011;6145;50.192;10.064;2022-09-09T06:36:46;2.60;;;2.00;;
12163;SDS011;6145;50.192;10.064;2022-09-09T06:39:13;2.90;;;1.67;;
12163;SDS011;6145;50.192;10.064;2022-09-09T06:41:40;2.07;;;1.97;;
12163;SDS011;6145;50.192;10.064;2022-09-09T06:44:09;2.53;;;2.30;;
12163;SDS011;6145;50.192;10.064;2022-09-09T06:46:37;2.60;;;1.80;;
12163;SDS011;6145;50.192;10.064;2022-09-09T06:49:04;3.90;;;1.80;;
12163;SDS011;6145;50.192;10.064;2022-09-09T06:51:33;2.50;;;1.70;;
12163;SDS011;6145;50.192;10.064;2022-09-09T06:54:01;2.80;;;1.70;;
12163;SDS011;6145;50.192;10.064;2022-09-09T06:56:29;2.47;;;1.70;;
12163;SDS011;6145;50.192;10.064;2022-09-09T06:58:57;2.40;;;1.67;;
12163;SDS011;6145;50.192;10.064;2022-09-09T07:01:27;2.20;;;2.00;;
12163;SDS011;6145;50.192;10.064;2022-09-09T07:03:57;1.93;;;1.73;;
12163;SDS011;6145;50.192;10.064;2022-09-09T07:06:25;3.20;;;2.27;;
12163;SDS011;6145;50.192;10.064;2022-09-09T07:08:53;1.70;;;1.60;;
12163;SDS011;6145;50.192;10.064;2022-09-09T07:11:23;2.60;;;2.30;;
12163;SDS011;6145;50.192;10.064;2022-09-09T07:13:52;1.73;;;1.53;;
12163;SDS011;6145;50.192;10.064;2022-09-09T07:16:21;3.93;;;2.10;;
12163;SDS011;6145;50.192;10.064;2022-09-09T07:18:51;2.43;;;1.73;;
12163;SDS011;6145;50.192;10.064;2022-09-09T07:21:18;1.30;;;1.20;;
12163;SDS011;6145;50.192;10.064;2022-09-09T07:23:45;2.17;;;1.60;;
12163;SDS011;6145;50.192;10.064;2022-09-09T07:26:13;2.20;;;1.60;;
12163;SDS011;6145;50.192;10.064;2022-09-09T07:28:41;3.03;;;1.97;;
12163;SDS011;6145;50.192;10.064;2022-09-09T07:31:12;4.20;;;1.90;;
12163;SDS011;6145;50.192;10.064;2022-09-09T07:33:41;2.63;;;1.67;;
12163;SDS011;6145;50.192;10.064;2022-09-09T07:36:13;2.93;;;1.60;;
12163;SDS011;6145;50.192;10.064;2022-09-09T07:38:41;3.67;;;2.03;;
12163;SDS011;6145;50.192;10.064;2022-09-09T07:41:10;2.57;;;1.70;;
12163;SDS011;6145;50.192;10.064;2022-09-09T07:43:39;3.23;;;1.40;;
12163;SDS011;6145;50.192;10.064;2022-09-09T07:46:07;4.70;;;1.70;;
12163;SDS011;6145;50.192;10.064;2022-09-09T07:48:35;2.20;;;1.47;;
12163;SDS011;6145;50.192;10.064;2022-09-09T07:51:03;3.10;;;1.50;;
12163;SDS011;6145;50.192;10.064;2022-09-09T07:53:33;4.57;;;1.60;;
12163;SDS011;6145;50.192;10.064;2022-09-09T07:56:04;3.93;;;1.77;;
12163;SDS011;6145;50.192;10.064;2022-09-09T07:58:32;4.27;;;1.40;;
12163;SDS011;6145;50.192;10.064;2022-09-09T08:00:59;3.27;;;1.60;;
12163;SDS011;6145;50.192;10.064;2022-09-09T08:03:26;1.40;;;1.30;;
12163;SDS011;6145;50.192;10.064;2022-09-09T08:05:52;3.10;;;1.50;;
12163;SDS011;6145;50.192;10.064;2022-09-09T08:08:26;3.10;;;1.40;;
12163;SDS011;6145;50.192;10.064;2022-09-09T08:10:54;2.43;;;1.63;;
12163;SDS011;6145;50.192;10.064;2022-09-09T08:13:28;2.13;;;1.50;;
12163;SDS011;6145;50.192;10.064;2022-09-09T08:16:02;1.63;;;1.50;;
12163;SDS011;6145;50.192;10.064;2022-09-09T08:18:30;2.63;;;1.40;;
12163;SDS011;6145;50.192;10.064;2022-09-09T08:20:57;1.63;;;1.33;;
12163;SDS011;6145;50.192;10.064;2022-09-09T08:23:26;3.33;;;1.50;;
12163;SDS011;6145;50.192;10.064;2022-09-09T08:25:54;5.43;;;1.63;;
12163;SDS011;6145;50.192;10.064;2022-09-09T08:28:22;3.37;;;1.57;;
12163;SDS011;6145;50.192;10.064;2022-09-09T08:30:48;1.83;;;1.60;;
12163;SDS011;6145;50.192;10.064;2022-09-09T08:33:16;3.07;;;1.67;;
12163;SDS011;6145;50.192;10.064;2022-09-09T08:35:49;2.43;;;1.73;;
12163;SDS011;6145;50.192;10.064;2022-09-09T08:38:17;2.80;;;1.37;;
12163;SDS011;6145;50.192;10.064;2022-09-09T08:40:44;2.63;;;1.50;;
12163;SDS011;6145;50.192;10.064;2022-09-09T08:43:15;4.63;;;1.57;;
12163;SDS011;6145;50.192;10.064;2022-09-09T08:45:46;5.10;;;1.73;;
12163;SDS011;6145;50.192;10.064;2022-09-09T08:48:28;3.63;;;1.57;;
12163;SDS011;6145;50.192;10.064;2022-09-09T08:51:07;5.03;;;1.50;;
12163;SDS011;6145;50.192;10.064;2022-09-09T08:53:36;4.40;;;1.93;;
12163;SDS011;6145;50.192;10.064;2022-09-09T08:56:08;3.50;;;1.60;;
12163;SDS011;6145;50.192;10.064;2022-09-09T08:58:41;4.87;;;1.73;;
12163;SDS011;6145;50.192;10.064;2022-09-09T09:01:19;3.43;;;1.73;;
12163;SDS011;6145;50.192;10.064;2022-09-09T09:03:59;3.03;;;1.80;;
12163;SDS011;6145;50.192;10.064;2022-09-09T09:06:35;3.50;;;1.80;;
12163;SDS011;6145;50.192;10.064;2022-09-09T09:09:13;5.27;;;2.00;;
12163;SDS011;6145;50.192;10.064;2022-09-09T09:11:48;3.57;;;1.63;;
12163;SDS011;6145;50.192;10.064;2022-09-09T09:14:18;5.10;;;1.63;;
12163;SDS011;6145;50.192;10.064;2022-09-09T09:16:49;1.83;;;1.67;;
12163;SDS011;6145;50.192;10.064;2022-09-09T09:19:19;2.90;;;1.63;;
12163;SDS011;6145;50.192;10.064;2022-09-09T09:21:48;3.77;;;1.63;;
12163;SDS011;6145;50.192;10.064;2022-09-09T09:24:20;2.20;;;1.53;;
12163;SDS011;6145;50.192;10.064;2022-09-09T09:26:53;3.40;;;1.57;;
12163;SDS011;6145;50.192;10.064;2022-09-09T09:29:23;2.57;;;1.63;;
12163;SDS011;6145;50.192;10.064;2022-09-09T09:31:52;2.27;;;1.50;;
12163;SDS011;6145;50.192;10.064;2022-09-09T09:34:21;4.47;;;1.80;;
12163;SDS011;6145;50.192;10.064;2022-09-09T09:36:52;3.93;;;1.90;;
12163;SDS011;6145;50.192;10.064;2022-09-09T09:39:23;2.30;;;1.80;;
12163;SDS011;6145;50.192;10.064;2022-09-09T09:41:51;3.50;;;1.77;;
12163;SDS011;6145;50.192;10.064;2022-09-09T09:44:23;4.10;;;1.50;;
12163;SDS011;6145;50.192;10.064;2022-09-09T09:46:52;2.43;;;1.67;;
12163;SDS011;6145;50.192;10.064;2022-09-09T09:49:31;2.80;;;1.60;;
12163;SDS011;6145;50.192;10.064;2022-09-09T09:51:59;6.47;;;1.80;;
12163;SDS011;6145;50.192;10.064;2022-09-09T09:54:27;2.73;;;1.47;;
12163;SDS011;6145;50.192;10.064;2022-09-09T09:56:55;2.13;;;1.40;;
12163;SDS011;6145;50.192;10.064;2022-09-09T09:59:35;4.03;;;1.73;;
12163;SDS011;6145;50.192;10.064;2022-09-09T10:04:59;2.27;;;1.47;;
12163;SDS011;6145;50.192;10.064;2022-09-09T10:07:27;3.27;;;1.53;;
12163;SDS011;6145;50.192;10.064;2022-09-09T10:09:55;3.37;;;1.43;;
12163;SDS011;6145;50.192;10.064;2022-09-09T10:12:25;2.30;;;1.63;;
12163;SDS011;6145;50.192;10.064;2022-09-09T10:15:05;3.43;;;1.70;;
12163;SDS011;6145;50.192;10.064;2022-09-09T10:17:40;2.80;;;1.20;;
12163;SDS011;6145;50.192;10.064;2022-09-09T10:20:20;3.23;;;1.40;;
12163;SDS011;6145;50.192;10.064;2022-09-09T10:23:04;3.60;;;1.60;;
12163;SDS011;6145;50.192;10.064;2022-09-09T10:25:47;3.47;;;1.63;;
12163;SDS011;6145;50.192;10.064;2022-09-09T10:28:48;2.90;;;1.50;;
12163;SDS011;6145;50.192;10.064;2022-09-09T10:31:30;4.60;;;1.90;;
12163;SDS011;6145;50.192;10.064;2022-09-09T10:34:05;3.80;;;1.53;;
12163;SDS011;6145;50.192;10.064;2022-09-09T10:36:43;1.93;;;1.67;;
12163;SDS011;6145;50.192;10.064;2022-09-09T10:39:18;4.07;;;1.67;;
12163;SDS011;6145;50.192;10.064;2022-09-09T10:41:55;3.08;;;1.70;;
12163;SDS011;6145;50.192;10.064;2022-09-09T10:44:30;3.13;;;1.67;;
12163;SDS011;6145;50.192;10.064;2022-09-09T10:50:03;3.40;;;1.40;;
12163;SDS011;6145;50.192;10.064;2022-09-09T10:52:43;2.40;;;1.57;;
12163;SDS011;6145;50.192;10.064;2022-09-09T10:55:19;2.70;;;1.80;;
12163;SDS011;6145;50.192;10.064;2022-09-09T10:57:51;1.90;;;1.43;;
12163;SDS011;6145;50.192;10.064;2022-09-09T11:00:20;3.70;;;1.30;;
12163;SDS011;6145;50.192;10.064;2022-09-09T11:02:50;2.95;;;1.67;;
12163;SDS011;6145;50.192;10.064;2022-09-09T11:05:21;5.85;;;1.60;;
12163;SDS011;6145;50.192;10.064;2022-09-09T11:07:54;4.50;;;1.80;;
12163;SDS011;6145;50.192;10.064;2022-09-09T11:10:24;4.05;;;1.98;;
12163;SDS011;6145;50.192;10.064;2022-09-09T11:13:08;3.80;;;1.50;;
12163;SDS011;6145;50.192;10.064;2022-09-09T11:15:41;2.38;;;1.33;;
12163;SDS011;6145;50.192;10.064;2022-09-09T11:18:13;3.58;;;1.60;;
12163;SDS011;6145;50.192;10.064;2022-09-09T11:20:45;5.30;;;1.83;;
12163;SDS011;6145;50.192;10.064;2022-09-09T11:23:13;1.87;;;1.40;;
12163;SDS011;6145;50.192;10.064;2022-09-09T11:25:43;3.00;;;1.53;;
12163;SDS011;6145;50.192;10.064;2022-09-09T11:28:24;4.20;;;1.70;;
12163;SDS011;6145;50.192;10.064;2022-09-09T11:31:07;3.90;;;1.58;;
12163;SDS011;6145;50.192;10.064;2022-09-09T11:37:07;3.63;;;1.50;;
12163;SDS011;6145;50.192;10.064;2022-09-09T11:40:06;4.20;;;1.73;;
12163;SDS011;6145;50.192;10.064;2022-09-09T11:42:39;3.60;;;1.63;;
12163;SDS011;6145;50.192;10.064;2022-09-09T11:45:10;1.27;;;1.03;;
12163;SDS011;6145;50.192;10.064;2022-09-09T11:47:51;5.40;;;1.73;;
12163;SDS011;6145;50.192;10.064;2022-09-09T11:50:27;3.87;;;1.40;;
12163;SDS011;6145;50.192;10.064;2022-09-09T11:53:05;3.83;;;1.73;;
12163;SDS011;6145;50.192;10.064;2022-09-09T11:55:45;3.27;;;1.30;;
12163;SDS011;6145;50.192;10.064;2022-09-09T11:58:16;3.43;;;1.63;;
12163;SDS011;6145;50.192;10.064;2022-09-09T12:00:46;3.10;;;1.40;;
12163;SDS011;6145;50.192;10.064;2022-09-09T12:06:08;2.67;;;1.40;;
12163;SDS011;6145;50.192;10.064;2022-09-09T12:08:40;2.75;;;1.30;;
12163;SDS011;6145;50.192;10.064;2022-09-09T12:11:10;2.60;;;1.23;;
12163;SDS011;6145;50.192;10.064;2022-09-09T12:13:37;1.77;;;1.20;;
12163;SDS011;6145;50.192;10.064;2022-09-09T12:16:04;1.73;;;1.30;;
12163;SDS011;6145;50.192;10.064;2022-09-09T12:18:32;2.85;;;1.20;;
12163;SDS011;6145;50.192;10.064;2022-09-09T12:21:02;2.27;;;1.20;;
12163;SDS011;6145;50.192;10.064;2022-09-09T12:23:40;3.00;;;1.33;;
12163;SDS011;6145;50.192;10.064;2022-09-09T12:26:20;1.83;;;1.10;;
12163;SDS011;6145;50.192;10.064;2022-09-09T12:28:59;4.97;;;1.20;;
12163;SDS011;6145;50.192;10.064;2022-09-09T12:31:33;1.30;;;1.13;;
12163;SDS011;6145;50.192;10.064;2022-09-09T12:34:08;1.27;;;1.10;;
12163;SDS011;6145;50.192;10.064;2022-09-09T12:36:37;0.97;;;0.87;;
12163;SDS011;6145;50.192;10.064;2022-09-09T12:39:14;2.78;;;1.13;;
12163;SDS011;6145;50.192;10.064;2022-09-09T12:41:50;7.30;;;1.60;;
12163;SDS011;6145;50.192;10.064;2022-09-09T12:44:22;3.83;;;1.37;;
12163;SDS011;6145;50.192;10.064;2022-09-09T12:46:50;1.93;;;1.30;;
12163;SDS011;6145;50.192;10.064;2022-09-09T12:49:26;3.30;;;1.10;;
12163;SDS011;6145;50.192;10.064;2022-09-09T12:51:59;1.63;;;1.10;;
12163;SDS011;6145;50.192;10.064;2022-09-09T12:54:31;2.77;;;1.20;;
12163;SDS011;6145;50.192;10.064;2022-09-09T12:57:00;1.93;;;1.10;;
12163;SDS011;6145;50.192;10.064;2022-09-09T12:59:34;3.40;;;1.30;;
12163;SDS011;6145;50.192;10.064;2022-09-09T13:02:02;3.55;;;1.23;;
12163;SDS011;6145;50.192;10.064;2022-09-09T13:04:37;1.90;;;1.20;;
12163;SDS011;6145;50.192;10.064;2022-09-09T13:07:07;2.45;;;1.25;;
12163;SDS011;6145;50.192;10.064;2022-09-09T13:09:37;0.90;;;0.90;;
12163;SDS011;6145;50.192;10.064;2022-09-09T13:12:04;2.23;;;0.97;;
12163;SDS011;6145;50.192;10.064;2022-09-09T13:14:34;1.63;;;1.17;;
12163;SDS011;6145;50.192;10.064;2022-09-09T13:17:03;1.73;;;0.93;;
12163;SDS011;6145;50.192;10.064;2022-09-09T13:19:34;2.10;;;1.10;;
12163;SDS011;6145;50.192;10.064;2022-09-09T13:22:10;2.23;;;1.10;;
12163;SDS011;6145;50.192;10.064;2022-09-09T13:24:40;2.20;;;1.20;;
12163;SDS011;6145;50.192;10.064;2022-09-09T13:27:20;2.00;;;1.20;;
12163;SDS011;6145;50.192;10.064;2022-09-09T13:29:52;2.73;;;1.17;;
12163;SDS011;6145;50.192;10.064;2022-09-09T13:32:21;2.00;;;1.10;;
12163;SDS011;6145;50.192;10.064;2022-09-09T13:34:50;1.98;;;1.00;;
12163;SDS011;6145;50.192;10.064;2022-09-09T13:37:19;2.28;;;1.17;;
12163;SDS011;6145;50.192;10.064;2022-09-09T13:39:52;1.53;;;1.07;;
12163;SDS011;6145;50.192;10.064;2022-09-09T13:42:22;2.17;;;1.10;;
12163;SDS011;6145;50.192;10.064;2022-09-09T13:44:52;1.63;;;1.03;;
12163;SDS011;6145;50.192;10.064;2022-09-09T13:47:19;2.50;;;1.00;;
12163;SDS011;6145;50.192;10.064;2022-09-09T13:49:50;3.25;;;1.40;;
12163;SDS011;6145;50.192;10.064;2022-09-09T13:52:17;3.15;;;1.42;;
12163;SDS011;6145;50.192;10.064;2022-09-09T13:54:46;1.10;;;0.80;;
12163;SDS011;6145;50.192;10.064;2022-09-09T13:57:17;2.38;;;0.90;;
12163;SDS011;6145;50.192;10.064;2022-09-09T13:59:45;3.72;;;1.13;;
12163;SDS011;6145;50.192;10.064;2022-09-09T14:02:12;1.38;;;1.20;;
12163;SDS011;6145;50.192;10.064;2022-09-09T14:04:39;2.28;;;1.15;;
12163;SDS011;6145;50.192;10.064;2022-09-09T14:07:08;2.83;;;0.95;;
12163;SDS011;6145;50.192;10.064;2022-09-09T14:09:37;1.85;;;1.10;;
12163;SDS011;6145;50.192;10.064;2022-09-09T14:12:04;1.13;;;0.85;;
12163;SDS011;6145;50.192;10.064;2022-09-09T14:14:32;2.17;;;1.10;;
12163;SDS011;6145;50.192;10.064;2022-09-09T14:16:59;3.55;;;1.38;;
12163;SDS011;6145;50.192;10.064;2022-09-09T14:19:25;0.95;;;0.70;;
12163;SDS011;6145;50.192;10.064;2022-09-09T14:21:52;2.33;;;1.02;;
12163;SDS011;6145;50.192;10.064;2022-09-09T14:24:19;2.28;;;1.23;;
12163;SDS011;6145;50.192;10.064;2022-09-09T14:26:46;3.00;;;0.90;;
12163;SDS011;6145;50.192;10.064;2022-09-09T14:29:12;1.73;;;1.10;;
12163;SDS011;6145;50.192;10.064;2022-09-09T14:31:41;1.58;;;0.90;;
12163;SDS011;6145;50.192;10.064;2022-09-09T14:34:07;2.25;;;0.90;;
12163;SDS011;6145;50.192;10.064;2022-09-09T14:36:36;2.30;;;1.10;;
12163;SDS011;6145;50.192;10.064;2022-09-09T14:39:02;2.28;;;1.13;;
12163;SDS011;6145;50.192;10.064;2022-09-09T14:41:29;0.82;;;0.75;;
12163;SDS011;6145;50.192;10.064;2022-09-09T14:43:56;1.38;;;1.08;;
12163;SDS011;6145;50.192;10.064;2022-09-09T14:46:24;1.08;;;0.73;;
12163;SDS011;6145;50.192;10.064;2022-09-09T14:48:53;2.33;;;1.13;;
12163;SDS011;6145;50.192;10.064;2022-09-09T14:51:21;1.95;;;1.00;;
12163;SDS011;6145;50.192;10.064;2022-09-09T14:53:50;1.80;;;1.15;;
12163;SDS011;6145;50.192;10.064;2022-09-09T14:56:19;2.33;;;1.30;;
12163;SDS011;6145;50.192;10.064;2022-09-09T14:58:48;1.48;;;1.17;;
12163;SDS011;6145;50.192;10.064;2022-09-09T15:01:17;2.47;;;1.00;;
12163;SDS011;6145;50.192;10.064;2022-09-09T15:03:48;1.85;;;1.20;;
12163;SDS011;6145;50.192;10.064;2022-09-09T15:06:17;2.85;;;1.20;;
12163;SDS011;6145;50.192;10.064;2022-09-09T15:08:44;1.52;;;0.85;;
12163;SDS011;6145;50.192;10.064;2022-09-09T15:11:12;1.38;;;1.00;;
12163;SDS011;6145;50.192;10.064;2022-09-09T15:13:41;0.93;;;0.85;;
12163;SDS011;6145;50.192;10.064;2022-09-09T15:16:10;1.13;;;0.93;;
12163;SDS011;6145;50.192;10.064;2022-09-09T15:18:38;0.98;;;0.90;;
12163;SDS011;6145;50.192;10.064;2022-09-09T15:21:07;1.77;;;1.02;;
12163;SDS011;6145;50.192;10.064;2022-09-09T15:23:36;1.52;;;1.00;;
12163;SDS011;6145;50.192;10.064;2022-09-09T15:26:03;2.25;;;1.10;;
12163;SDS011;6145;50.192;10.064;2022-09-09T15:28:31;1.42;;;1.20;;
12163;SDS011;6145;50.192;10.064;2022-09-09T15:30:58;3.80;;;1.38;;